Terminal Aerodrome Forecast
Issued by NWS

Home | Current Version | Previous Version | Text Only | Print | Product List | Glossary On
Versions: 1 2 3 4 5 6 7 8 9 10 11 12 13 14 15 16 17 18 19 20 21 22 23 24 25
996
FTUS42 KCAE 231428 AAA
TAFCUB
TAF AMD
KCUB 231428Z 2314/2412 04007KT P6SM OVC012
     FM231800 09005KT P6SM VCSH BKN035
     FM232100 12006KT P6SM VCTS BKN035CB
     FM240000 14005KT 3SM SHRA VCTS OVC025CB WS015/15030KT
      TEMPO 2400/2404 +TSRA=

USA.gov is the U.S. government's official web portal to all federal, state and local government web resources and services.